Time;durP1;ratioP1;P1;durP2;ratioP2;P2;SDS_P1;SDS_P2;PMS_P1;PMS_P2;Temp;Humidity;BMP_temperature;BMP_pressure;BME280_temperature;BME280_humidity;BME280_pressure;Samples;Min_cycle;Max_cycle;Signal;HPM_P1;HPM_P2
2023/02/04 00:02:43;;;;;;;6.60;3.10;;;;;;;-1.90;100.00;100396.50;109344;1253;60530;-80
2023/02/04 00:05:32;;;;;;;8.50;3.70;;;;;;;-1.92;100.00;100392.59;109166;1252;74050;-80
2023/02/04 00:08:21;;;;;;;6.90;3.40;;;;;;;-1.90;100.00;100390.45;109279;1252;67477;-80
2023/02/04 00:11:10;;;;;;;7.60;3.70;;;;;;;-1.96;100.00;100387.53;109304;1253;72883;-80
2023/02/04 00:13:59;;;;;;;7.70;3.70;;;;;;;-1.94;100.00;100389.86;109307;1253;58834;-80
2023/02/04 00:16:48;;;;;;;10.30;4.50;;;;;;;-1.93;100.00;100388.33;109168;1252;60765;-80
2023/02/04 00:19:41;;;;;;;7.00;4.10;;;;;;;-1.94;100.00;100387.00;109156;1253;205033;-79
2023/02/04 00:22:30;;;;;;;;;;;;;;;-1.99;100.00;100387.86;109359;1253;69385;-81
2023/02/04 00:25:19;;;;;;;10.90;4.20;;;;;;;-2.06;100.00;100385.55;109193;1253;73020;-82
2023/02/04 00:28:07;;;;;;;8.30;4.00;;;;;;;-2.03;100.00;100381.45;109174;1253;62403;-82
2023/02/04 00:30:56;;;;;;;9.30;3.70;;;;;;;-2.07;100.00;100377.52;109154;1253;61260;-82
2023/02/04 00:33:45;;;;;;;5.50;3.20;;;;;;;-2.08;100.00;100377.23;109368;1256;74055;-81
2023/02/04 00:36:35;;;;;;;7.60;3.20;;;;;;;-1.97;100.00;100379.67;109193;1252;69932;-81
2023/02/04 00:39:24;;;;;;;8.00;3.70;;;;;;;-1.96;100.00;100377.95;109324;1253;70609;-81
2023/02/04 00:42:13;;;;;;;7.00;4.00;;;;;;;-1.93;100.00;100375.37;109357;1251;60206;-81
2023/02/04 00:45:02;;;;;;;6.60;3.50;;;;;;;-1.86;100.00;100377.42;109083;1253;59675;-81
2023/02/04 00:47:50;;;;;;;7.50;3.60;;;;;;;-1.84;100.00;100376.71;109288;1253;75300;-81
2023/02/04 00:50:39;;;;;;;8.30;3.40;;;;;;;-1.91;100.00;100381.58;109333;1253;69467;-82
2023/02/04 00:53:28;;;;;;;8.90;3.90;;;;;;;-1.87;100.00;100381.57;109152;1253;71079;-81
2023/02/04 00:56:18;;;;;;;9.00;4.00;;;;;;;-1.82;100.00;100375.98;109208;1253;62232;-81
2023/02/04 00:59:07;;;;;;;9.10;4.30;;;;;;;-1.81;100.00;100373.02;109384;1253;58266;-82
2023/02/04 01:01:56;;;;;;;7.90;3.40;;;;;;;-1.77;100.00;100374.64;109379;1253;73806;-81
2023/02/04 01:04:44;;;;;;;6.00;3.30;;;;;;;-1.79;100.00;100377.73;109205;1253;70066;-82
2023/02/04 01:07:34;;;;;;;6.70;4.00;;;;;;;-1.73;100.00;100377.17;109139;1253;71640;-81
2023/02/04 01:10:24;;;;;;;9.00;4.40;;;;;;;-1.69;100.00;100381.95;109164;1253;58226;-82
2023/02/04 01:13:13;;;;;;;8.60;4.40;;;;;;;-1.68;100.00;100381.39;109403;1252;59958;-81
2023/02/04 01:16:02;;;;;;;10.70;4.70;;;;;;;-1.69;100.00;100381.71;109175;1253;74626;-81
2023/02/04 01:18:54;;;;;;;5.50;3.40;;;;;;;-1.75;100.00;100378.36;109338;1253;67966;-82
2023/02/04 01:21:45;;;;;;;6.30;3.80;;;;;;;-1.75;100.00;100377.20;109173;1252;70598;-81
2023/02/04 01:24:34;;;;;;;6.80;3.70;;;;;;;-1.78;100.00;100381.64;109331;1253;59474;-81
2023/02/04 01:27:43;;;;;;;6.30;3.70;;;;;;;-1.76;100.00;100383.33;109226;1252;60903;-81
2023/02/04 01:30:32;;;;;;;8.60;4.30;;;;;;;-1.78;100.00;100385.27;109171;1252;71819;-82
2023/02/04 01:33:22;;;;;;;6.00;3.60;;;;;;;-1.77;100.00;100386.30;109392;1251;70052;-82
2023/02/04 01:36:11;;;;;;;9.80;3.90;;;;;;;-1.80;100.00;100391.20;109185;1252;73184;-81
2023/02/04 01:38:59;;;;;;;8.20;3.70;;;;;;;-1.77;100.00;100389.80;109410;1252;60752;-81
2023/02/04 01:41:48;;;;;;;7.20;3.60;;;;;;;-1.78;100.00;100389.23;109301;1253;59347;-82
2023/02/04 01:44:38;;;;;;;6.20;3.30;;;;;;;-1.77;100.00;100386.19;109382;1253;74124;-81
2023/02/04 01:47:28;;;;;;;7.30;3.20;;;;;;;-1.78;100.00;100389.55;109357;1253;69921;-81
2023/02/04 01:50:17;;;;;;;8.00;3.80;;;;;;;-1.78;100.00;100386.63;109367;1252;73568;-81
2023/02/04 01:53:06;;;;;;;9.40;4.10;;;;;;;-1.72;100.00;100381.67;109079;1253;59755;-81
2023/02/04 01:55:54;;;;;;;12.60;4.40;;;;;;;-1.70;100.00;100384.06;109138;1253;60723;-81
2023/02/04 01:58:44;;;;;;;7.90;4.10;;;;;;;-1.67;100.00;100387.45;109163;1253;72029;-81
2023/02/04 02:01:45;;;;;;;7.00;3.40;;;;;;;-1.66;100.00;100387.67;109233;1256;69674;-81
2023/02/04 02:04:34;;;;;;;5.30;3.30;;;;;;;-1.69;100.00;100392.52;109359;1253;72622;-81
2023/02/04 02:07:23;;;;;;;9.70;4.00;;;;;;;-1.67;100.00;100393.75;109365;1253;61349;-81
2023/02/04 02:10:12;;;;;;;6.10;3.10;;;;;;;-1.63;100.00;100398.67;109194;1252;58158;-81
2023/02/04 02:13:00;;;;;;;7.40;3.30;;;;;;;-1.61;100.00;100399.55;109320;1253;75921;-81
2023/02/04 02:15:51;;;;;;;8.70;3.80;;;;;;;-1.62;100.00;100398.35;109205;1252;69221;-81
2023/02/04 02:18:40;;;;;;;8.80;3.90;;;;;;;-1.67;100.00;100402.60;109148;1253;72706;-82
2023/02/04 02:21:41;;;;;;;6.60;3.30;;;;;;;-1.67;100.00;100403.66;109385;1253;59774;-82
2023/02/04 02:24:31;;;;;;;5.80;3.40;;;;;;;-1.67;100.00;100408.68;109034;1258;59203;-82
2023/02/04 02:27:20;;;;;;;9.40;3.60;;;;;;;-1.67;100.00;100413.91;109323;1254;74310;-81
2023/02/04 02:30:09;;;;;;;7.40;3.40;;;;;;;-1.70;100.00;100411.23;109098;1252;68429;-82
2023/02/04 02:32:59;;;;;;;5.80;3.20;;;;;;;-1.70;100.00;100407.55;109392;1252;71600;-81
2023/02/04 02:35:48;;;;;;;9.10;3.60;;;;;;;-1.72;100.00;100410.27;109114;1253;58841;-81
2023/02/04 02:38:38;;;;;;;4.90;3.00;;;;;;;-1.77;100.00;100406.34;109368;1253;59788;-82
2023/02/04 02:41:26;;;;;;;4.40;2.70;;;;;;;-1.78;100.00;100406.90;109348;1252;73725;-81
2023/02/04 02:44:15;;;;;;;6.40;3.60;;;;;;;-1.79;100.00;100404.80;109389;1253;69958;-81
2023/02/04 02:47:04;;;;;;;6.70;3.20;;;;;;;-1.81;100.00;100407.48;109143;1253;71345;-81
2023/02/04 02:49:52;;;;;;;9.50;4.10;;;;;;;-1.78;100.00;100403.69;109148;1253;58586;-81
2023/02/04 02:52:42;;;;;;;6.40;3.90;;;;;;;-1.77;100.00;100408.40;109427;1253;60298;-81
2023/02/04 02:55:31;;;;;;;6.50;3.50;;;;;;;-1.77;100.00;100409.55;109178;1253;73709;-81
2023/02/04 02:58:33;;;;;;;4.80;3.10;;;;;;;-1.78;100.00;100405.46;109137;1257;68652;-81
2023/02/04 03:01:22;;;;;;;6.50;3.30;;;;;;;-1.76;100.00;100407.61;109348;1252;73811;-81
2023/02/04 03:04:11;;;;;;;6.10;4.00;;;;;;;-1.75;100.00;100409.84;109105;1257;58602;-81
2023/02/04 03:07:00;;;;;;;6.80;3.60;;;;;;;-1.74;100.00;100407.00;109398;1253;60617;-81
2023/02/04 03:09:50;;;;;;;8.50;3.90;;;;;;;-1.73;100.00;100401.57;109216;1253;74471;-81
2023/02/04 03:12:40;;;;;;;8.80;4.50;;;;;;;-1.76;100.00;100402.17;109356;1253;70461;-81
2023/02/04 03:15:29;;;;;;;6.70;3.60;;;;;;;-1.72;100.00;100405.77;109229;1253;72585;-81
2023/02/04 03:18:19;;;;;;;6.90;3.50;;;;;;;-1.72;100.00;100403.14;109162;1253;62711;-81
2023/02/04 03:21:08;;;;;;;8.40;4.20;;;;;;;-1.68;100.00;100401.55;109339;1253;58488;-81
2023/02/04 03:23:57;;;;;;;8.00;3.10;;;;;;;-1.66;100.00;100401.94;109177;1253;73465;-81
2023/02/04 03:26:46;;;;;;;6.90;3.40;;;;;;;-1.68;100.00;100404.15;109216;1253;71332;-81
2023/02/04 03:29:42;;;;;;;6.50;3.40;;;;;;;-1.60;100.00;100400.37;109096;1253;72465;-81
2023/02/04 03:32:31;;;;;;;8.80;3.50;;;;;;;-1.59;100.00;100400.52;109113;1253;60258;-81
2023/02/04 03:35:20;;;;;;;4.50;2.70;;;;;;;-1.53;100.00;100399.75;109347;1253;58280;-81
2023/02/04 03:38:08;;;;;;;11.80;4.00;;;;;;;-1.50;100.00;100400.25;109298;1253;74567;-81
2023/02/04 03:40:57;;;;;;;4.50;3.00;;;;;;;-1.52;100.00;100397.77;109350;1255;68669;-81
2023/02/04 03:43:46;;;;;;;5.60;3.30;;;;;;;-1.56;100.00;100401.48;109154;1253;71701;-81
2023/02/04 03:46:38;;;;;;;8.20;3.80;;;;;;;-1.59;100.00;100398.73;109332;1253;60116;-81
2023/02/04 03:49:28;;;;;;;8.30;3.40;;;;;;;-1.60;100.00;100397.71;109291;1253;60411;-81
2023/02/04 03:52:16;;;;;;;5.80;3.30;;;;;;;-1.63;100.00;100404.90;109206;1253;73982;-82
2023/02/04 03:55:05;;;;;;;6.00;3.20;;;;;;;-1.64;100.00;100401.56;109343;1253;69139;-81
2023/02/04 03:57:55;;;;;;;5.50;3.10;;;;;;;-1.65;100.00;100401.23;109336;1252;73050;-81
2023/02/04 04:00:43;;;;;;;7.10;3.50;;;;;;;-1.67;100.00;100398.67;109378;1252;60365;-81
2023/02/04 04:03:32;;;;;;;9.00;4.60;;;;;;;-1.72;100.00;100395.27;109430;1253;61218;-81
2023/02/04 04:06:21;;;;;;;13.20;5.20;;;;;;;-1.71;100.00;100394.41;109272;1253;74719;-82
2023/02/04 04:09:10;;;;;;;9.30;5.00;;;;;;;-1.71;100.00;100403.68;109414;1253;66523;-81
2023/02/04 04:11:59;;;;;;;12.40;5.50;;;;;;;-1.69;100.00;100404.88;109410;1253;73857;-81
2023/02/04 04:14:48;;;;;;;12.30;5.20;;;;;;;-1.69;100.00;100411.65;109274;1253;59070;-81
2023/02/04 04:17:37;;;;;;;6.40;4.00;;;;;;;-1.72;100.00;100413.69;109356;1252;59494;-81
2023/02/04 04:20:27;;;;;;;8.20;4.00;;;;;;;-1.73;100.00;100412.88;109325;1256;73988;-81
2023/02/04 04:23:15;;;;;;;9.20;3.90;;;;;;;-1.75;100.00;100411.62;109205;1253;66923;-81
2023/02/04 04:26:04;;;;;;;7.60;4.10;;;;;;;-1.84;100.00;100406.43;109368;1251;71481;-81
2023/02/04 04:28:53;;;;;;;7.90;3.60;;;;;;;-1.81;100.00;100413.54;109146;1253;59250;-81
2023/02/04 04:31:43;;;;;;;9.30;3.70;;;;;;;-1.81;100.00;100416.20;109361;1252;61094;-81
2023/02/04 04:34:32;;;;;;;8.70;4.20;;;;;;;-1.86;100.00;100416.22;109407;1253;73817;-81
2023/02/04 04:37:21;;;;;;;6.70;3.60;;;;;;;-1.91;100.00;100417.88;109202;1257;69576;-81
2023/02/04 04:40:11;;;;;;;7.70;3.60;;;;;;;-1.98;100.00;100418.52;109408;1252;72982;-81
2023/02/04 04:42:59;;;;;;;7.80;3.50;;;;;;;-2.03;100.00;100424.41;109396;1253;59881;-81
2023/02/04 04:45:48;;;;;;;7.40;3.80;;;;;;;-2.02;100.00;100425.55;109418;1252;59608;-81
2023/02/04 04:48:37;;;;;;;6.50;3.30;;;;;;;-1.97;100.00;100425.10;109440;1253;74081;-81
2023/02/04 04:51:30;;;;;;;5.50;2.90;;;;;;;-2.02;100.00;100427.15;109199;1253;67486;-81
2023/02/04 04:54:19;;;;;;;9.30;4.00;;;;;;;-2.06;100.00;100432.60;109416;1251;72617;-81
2023/02/04 04:57:08;;;;;;;6.00;3.30;;;;;;;-2.00;100.00;100436.52;109175;1253;60588;-81
2023/02/04 04:59:58;;;;;;;6.20;3.70;;;;;;;-1.96;100.00;100437.73;109368;1253;60228;-81
2023/02/04 05:02:47;;;;;;;6.20;3.00;;;;;;;-1.97;100.00;100440.18;109304;1253;74936;-81
2023/02/04 05:05:39;;;;;;;4.30;3.10;;;;;;;-1.97;100.00;100441.26;109475;1251;69982;-81
2023/02/04 05:08:28;;;;;;;7.40;3.60;;;;;;;-1.92;100.00;100444.63;109173;1252;73917;-81
2023/02/04 05:11:17;;;;;;;7.20;3.80;;;;;;;-1.90;100.00;100444.48;109310;1253;58248;-81
2023/02/04 05:14:06;;;;;;;5.10;4.00;;;;;;;-1.87;100.00;100450.91;109373;1254;63715;-81
2023/02/04 05:16:54;;;;;;;8.30;3.70;;;;;;;-1.90;100.00;100459.10;109362;1255;74209;-81
2023/02/04 05:19:43;;;;;;;5.00;3.20;;;;;;;-1.90;100.00;100461.98;109255;1253;68636;-81
2023/02/04 05:22:32;;;;;;;7.00;3.40;;;;;;;-1.89;100.00;100469.25;109385;1251;73845;-81
2023/02/04 05:25:22;;;;;;;6.90;3.60;;;;;;;-1.89;100.00;100466.23;109305;1255;59453;-82
2023/02/04 05:28:11;;;;;;;7.30;3.70;;;;;;;-1.92;100.00;100468.88;109350;1253;59491;-81
2023/02/04 05:31:01;;;;;;;7.60;3.30;;;;;;;-1.90;100.00;100473.69;109308;1253;73886;-81
2023/02/04 05:33:50;;;;;;;7.40;3.70;;;;;;;-1.91;100.00;100484.14;109185;1253;70391;-82
2023/02/04 05:36:39;;;;;;;5.70;3.40;;;;;;;-1.91;100.00;100482.54;109363;1252;71680;-82
2023/02/04 05:39:27;;;;;;;8.30;3.30;;;;;;;-1.90;100.00;100486.34;109338;1256;58374;-81
2023/02/04 05:42:16;;;;;;;6.10;3.60;;;;;;;-1.91;100.00;100486.50;109305;1254;59050;-80
2023/02/04 05:45:05;;;;;;;9.00;4.30;;;;;;;-1.94;100.00;100488.01;109256;1255;71971;-80
2023/02/04 05:47:55;;;;;;;9.10;4.30;;;;;;;-1.94;100.00;100490.77;109236;1253;68452;-80
2023/02/04 05:50:43;;;;;;;7.40;3.60;;;;;;;-1.88;100.00;100489.41;109311;1255;72428;-81
2023/02/04 05:53:32;;;;;;;4.60;3.00;;;;;;;-1.87;100.00;100492.91;109270;1253;61167;-81
2023/02/04 05:56:21;;;;;;;6.10;3.80;;;;;;;-1.90;100.00;100499.17;109339;1253;61453;-80
2023/02/04 05:59:10;;;;;;;5.60;3.10;;;;;;;-1.88;100.00;100500.83;109153;1257;74013;-81
2023/02/04 06:01:59;;;;;;;7.00;3.60;;;;;;;-1.82;100.00;100504.14;109373;1253;67103;-81
2023/02/04 06:04:47;;;;;;;10.80;5.80;;;;;;;-1.75;100.00;100506.33;109258;1254;73129;-80
2023/02/04 06:07:37;;;;;;;19.00;7.90;;;;;;;-1.76;100.00;100510.69;109043;1259;59476;-81
2023/02/04 06:10:26;;;;;;;43.50;19.20;;;;;;;-1.74;100.00;100515.13;109241;1253;58511;-81
2023/02/04 06:13:15;;;;;;;26.80;13.50;;;;;;;-1.76;100.00;100517.54;109333;1253;72762;-80
2023/02/04 06:16:04;;;;;;;12.00;5.70;;;;;;;-1.76;100.00;100522.65;109201;1254;68080;-80
2023/02/04 06:18:53;;;;;;;8.70;4.40;;;;;;;-1.73;100.00;100522.17;109349;1254;71782;-81
2023/02/04 06:21:42;;;;;;;11.90;5.10;;;;;;;-1.74;100.00;100526.86;109164;1254;59667;-81
2023/02/04 06:24:32;;;;;;;11.30;5.80;;;;;;;-1.70;100.00;100531.83;109354;1253;59583;-80
2023/02/04 06:27:24;;;;;;;10.70;5.20;;;;;;;-1.72;100.00;100532.52;109326;1254;72890;-81
2023/02/04 06:30:13;;;;;;;7.00;4.70;;;;;;;-1.71;100.00;100538.34;109334;1253;67043;-80
2023/02/04 06:33:02;;;;;;;10.60;5.20;;;;;;;-1.69;100.00;100538.31;109305;1253;73164;-80
2023/02/04 06:35:51;;;;;;;8.10;4.20;;;;;;;-1.66;100.00;100544.55;109333;1253;58159;-80
2023/02/04 06:38:39;;;;;;;8.00;4.60;;;;;;;-1.65;100.00;100550.83;109348;1256;61581;-80
2023/02/04 06:41:28;;;;;;;9.60;5.30;;;;;;;-1.65;100.00;100556.31;109347;1254;73156;-79
2023/02/04 06:44:17;;;;;;;10.20;4.50;;;;;;;-1.64;100.00;100559.20;109344;1253;68412;-82
2023/02/04 06:47:06;;;;;;;9.20;4.60;;;;;;;-1.62;100.00;100560.16;109323;1256;72847;-80
2023/02/04 06:49:54;;;;;;;13.50;5.20;;;;;;;-1.60;100.00;100562.62;109134;1254;58584;-80
2023/02/04 06:52:45;;;;;;;11.10;6.10;;;;;;;-1.57;100.00;100564.98;109278;1256;60153;-82
2023/02/04 06:55:35;;;;;;;12.00;5.60;;;;;;;-1.52;100.00;100567.19;109285;1253;71463;-80
2023/02/04 06:58:24;;;;;;;13.40;6.40;;;;;;;-1.52;100.00;100564.68;109354;1254;68192;-80
2023/02/04 07:01:13;;;;;;;13.80;6.10;;;;;;;-1.51;100.00;100560.04;109290;1255;72813;-80
2023/02/04 07:04:01;;;;;;;13.40;6.50;;;;;;;-1.43;100.00;100556.16;109303;1254;59869;-80
2023/02/04 07:06:50;;;;;;;10.70;6.20;;;;;;;-1.37;100.00;100557.38;109354;1254;60249;-80
2023/02/04 07:09:39;;;;;;;8.60;4.60;;;;;;;-1.37;100.00;100558.74;109319;1253;71664;-80
2023/02/04 07:12:28;;;;;;;10.10;4.60;;;;;;;-1.36;100.00;100562.62;109372;1253;68707;-80
2023/02/04 07:15:20;;;;;;;11.10;4.00;;;;;;;-1.38;100.00;100561.21;109209;1253;71366;-80
2023/02/04 07:18:09;;;;;;;8.20;5.00;;;;;;;-1.38;100.00;100567.06;109312;1253;58695;-80
2023/02/04 07:20:58;;;;;;;9.80;4.70;;;;;;;-1.45;100.00;100570.20;109356;1254;61067;-80
2023/02/04 07:23:47;;;;;;;13.70;5.10;;;;;;;-1.47;100.00;100570.80;109186;1254;74636;-80
2023/02/04 07:26:35;;;;;;;11.40;5.20;;;;;;;-1.41;100.00;100570.52;109316;1254;69151;-80
2023/02/04 07:29:25;;;;;;;11.00;5.00;;;;;;;-1.39;100.00;100565.79;109181;1254;72855;-81
2023/02/04 07:32:14;;;;;;;11.80;5.20;;;;;;;-1.39;100.00;100565.54;109159;1254;60661;-80
2023/02/04 07:35:03;;;;;;;13.00;5.30;;;;;;;-1.34;100.00;100566.92;109166;1254;60278;-80
2023/02/04 07:37:52;;;;;;;8.70;4.50;;;;;;;-1.29;100.00;100564.02;109347;1256;74378;-80
2023/02/04 07:40:40;;;;;;;10.20;5.30;;;;;;;-1.25;100.00;100562.19;109345;1254;67872;-80
2023/02/04 07:43:30;;;;;;;10.60;5.00;;;;;;;-1.19;100.00;100567.45;109268;1254;71583;-80
2023/02/04 07:46:18;;;;;;;11.50;5.70;;;;;;;-1.12;100.00;100570.09;109154;1254;60424;-80
2023/02/04 07:49:07;;;;;;;10.40;5.50;;;;;;;-1.06;100.00;100570.86;109352;1254;59190;-80
2023/02/04 07:51:56;;;;;;;14.10;5.40;;;;;;;-0.99;100.00;100577.80;109318;1254;73630;-80
2023/02/04 07:54:45;;;;;;;15.10;7.00;;;;;;;-0.94;100.00;100577.13;109312;1254;69504;-80
2023/02/04 07:57:34;;;;;;;14.40;7.00;;;;;;;-0.90;100.00;100578.17;109330;1254;73173;-80
2023/02/04 08:00:23;;;;;;;14.20;6.80;;;;;;;-0.85;100.00;100585.30;109333;1253;58337;-80
2023/02/04 08:03:11;;;;;;;10.20;5.20;;;;;;;-0.80;100.00;100586.50;109290;1253;59061;-80
2023/02/04 08:06:00;;;;;;;9.60;4.90;;;;;;;-0.79;100.00;100589.11;109350;1253;74409;-80
2023/02/04 08:08:49;;;;;;;13.50;5.60;;;;;;;-0.80;100.00;100591.17;109155;1254;70150;-80
2023/02/04 08:11:41;;;;;;;10.20;5.30;;;;;;;-0.76;100.00;100592.05;109286;1254;73535;-80
2023/02/04 08:14:30;;;;;;;9.50;5.60;;;;;;;-0.72;100.00;100589.50;109299;1253;61688;-80
2023/02/04 08:17:20;;;;;;;11.90;5.90;;;;;;;-0.68;100.00;100595.50;109308;1254;60754;-80
2023/02/04 08:20:10;;;;;;;10.90;6.30;;;;;;;-0.66;100.00;100596.38;109292;1254;74311;-80
2023/02/04 08:22:58;;;;;;;13.60;6.70;;;;;;;-0.64;100.00;100601.02;109176;1253;68758;-80
2023/02/04 08:25:47;;;;;;;14.10;6.70;;;;;;;-0.65;100.00;100606.09;109288;1253;74612;-80
2023/02/04 08:28:36;;;;;;;10.40;5.40;;;;;;;-0.67;100.00;100610.29;109310;1253;59050;-80
2023/02/04 08:31:25;;;;;;;11.70;6.10;;;;;;;-0.68;100.00;100611.73;109125;1253;59653;-80
2023/02/04 08:34:14;;;;;;;11.70;6.40;;;;;;;-0.64;100.00;100613.59;109334;1254;74308;-80
2023/02/04 08:37:03;;;;;;;14.30;6.80;;;;;;;-0.45;100.00;100615.09;109325;1253;69045;-80
2023/02/04 08:39:52;;;;;;;17.00;7.90;;;;;;;-0.39;100.00;100621.52;109314;1254;71651;-80
2023/02/04 08:42:41;;;;;;;14.80;7.30;;;;;;;-0.34;100.00;100616.04;109276;1253;60803;-80
2023/02/04 08:45:29;;;;;;;14.20;7.40;;;;;;;-0.30;100.00;100614.17;109280;1254;60830;-80
2023/02/04 08:48:18;;;;;;;14.70;7.20;;;;;;;-0.25;100.00;100612.98;109208;1253;75155;-80
2023/02/04 08:51:07;;;;;;;17.40;7.80;;;;;;;-0.26;100.00;100611.34;109322;1253;68985;-80
2023/02/04 08:53:56;;;;;;;16.20;7.10;;;;;;;-0.19;100.00;100608.45;109304;1254;73033;-80
2023/02/04 08:56:46;;;;;;;18.50;8.40;;;;;;;-0.11;100.00;100609.63;109269;1254;62223;-80
2023/02/04 08:59:35;;;;;;;20.80;9.40;;;;;;;0.01;100.00;100612.16;109212;1253;58281;-80
2023/02/04 09:02:23;;;;;;;19.00;8.60;;;;;;;0.08;100.00;100610.09;109295;1253;72606;-81
2023/02/04 09:05:12;;;;;;;13.50;7.30;;;;;;;0.11;100.00;100603.47;109305;1253;69695;-80
2023/02/04 09:08:01;;;;;;;21.40;8.80;;;;;;;0.17;100.00;100600.70;109314;1253;73657;-80
2023/02/04 09:10:50;;;;;;;15.70;7.70;;;;;;;0.19;100.00;100601.29;109304;1254;60180;-80
2023/02/04 09:13:39;;;;;;;10.60;6.50;;;;;;;0.16;100.00;100598.85;109306;1253;61252;-81
2023/02/04 09:16:28;;;;;;;18.20;8.20;;;;;;;0.19;100.00;100598.88;109291;1254;72517;-80
2023/02/04 09:19:22;;;;;;;15.30;7.60;;;;;;;0.33;100.00;100596.55;109317;1253;69442;-80
2023/02/04 09:22:12;;;;;;;15.30;6.60;;;;;;;0.47;100.00;100594.52;109269;1253;72953;-80
2023/02/04 09:25:00;;;;;;;14.40;7.20;;;;;;;0.50;100.00;100592.77;109300;1254;59588;-80
2023/02/04 09:27:49;;;;;;;12.60;6.50;;;;;;;0.58;100.00;100591.11;109298;1253;60379;-81
2023/02/04 09:30:38;;;;;;;15.10;6.90;;;;;;;0.65;100.00;100588.23;109312;1253;73750;-81
2023/02/04 09:33:27;;;;;;;9.30;5.40;;;;;;;0.70;100.00;100586.23;109301;1254;68263;-81
2023/02/04 09:36:16;;;;;;;12.60;5.80;;;;;;;0.63;100.00;100582.65;109287;1253;73958;-80
2023/02/04 09:39:05;;;;;;;14.90;7.00;;;;;;;0.49;100.00;100582.96;109292;1254;59448;-80
2023/02/04 09:41:54;;;;;;;15.00;7.00;;;;;;;0.30;100.00;100587.71;109325;1253;61680;-80
2023/02/04 09:44:44;;;;;;;12.60;6.80;;;;;;;0.22;100.00;100584.54;109081;1253;74255;-80
2023/02/04 09:47:33;;;;;;;10.90;6.20;;;;;;;0.31;100.00;100585.39;109212;1254;68148;-80
2023/02/04 09:50:23;;;;;;;9.00;5.30;;;;;;;0.42;100.00;100579.55;109255;1253;73107;-80
2023/02/04 09:53:14;;;;;;;11.20;5.80;;;;;;;0.57;100.00;100576.00;109286;1253;59979;-80
2023/02/04 09:56:03;;;;;;;11.00;5.90;;;;;;;0.67;100.00;100576.18;109196;1253;59039;-80
2023/02/04 09:58:52;;;;;;;9.40;5.80;;;;;;;0.79;100.00;100580.42;109204;1253;74767;-81
2023/02/04 10:01:40;;;;;;;9.60;5.30;;;;;;;0.92;100.00;100574.98;109324;1253;70189;-81
2023/02/04 10:04:29;;;;;;;9.20;5.70;;;;;;;1.00;100.00;100574.99;109303;1253;73582;-81
2023/02/04 10:07:20;;;;;;;10.00;5.80;;;;;;;1.04;100.00;100576.23;109093;1253;60717;-81
2023/02/04 10:10:21;;;;;;;8.70;5.50;;;;;;;1.00;100.00;100580.09;109209;1254;59697;-81
2023/02/04 10:13:18;;;;;;;9.90;5.80;;;;;;;0.98;100.00;100579.15;109369;1253;71361;-81
2023/02/04 10:16:15;;;;;;;7.60;5.20;;;;;;;0.99;100.00;100579.96;109289;1253;69607;-81
2023/02/04 10:19:06;;;;;;;8.80;5.00;;;;;;;1.05;100.00;100580.70;109288;1253;71678;-82
2023/02/04 10:21:54;;;;;;;10.10;5.40;;;;;;;1.08;100.00;100584.27;109282;1253;59325;-82
2023/02/04 10:24:44;;;;;;;7.00;4.80;;;;;;;1.21;100.00;100587.48;109282;1254;59635;-82
2023/02/04 10:27:33;;;;;;;11.50;6.10;;;;;;;1.35;100.00;100585.94;109230;1254;73173;-83
2023/02/04 10:30:27;;;;;;;7.10;4.50;;;;;;;1.41;100.00;100586.02;109308;1253;69097;-83
2023/02/04 10:33:25;;;;;;;9.30;4.90;;;;;;;1.42;100.00;100588.55;109287;1253;73128;-82
2023/02/04 10:36:13;;;;;;;11.00;5.30;;;;;;;1.54;100.00;100591.92;109303;1253;60169;-81
2023/02/04 10:39:12;;;;;;;15.20;5.60;;;;;;;1.60;100.00;100593.73;109096;1253;59087;-81
2023/02/04 10:42:02;;;;;;;7.70;4.70;;;;;;;1.59;100.00;100593.01;109070;1253;73974;-82
2023/02/04 10:44:51;;;;;;;14.80;5.60;;;;;;;1.55;100.00;100595.77;109307;1253;69159;-81
2023/02/04 10:47:49;;;;;;;11.50;5.70;;;;;;;1.50;100.00;100598.57;109201;1253;72655;-82
2023/02/04 10:50:38;;;;;;;8.00;4.60;;;;;;;1.47;100.00;100599.73;109272;1255;58441;-83
2023/02/04 10:56:35;;;;;;;10.10;5.30;;;;;;;1.25;100.00;100599.48;109315;1253;74409;-82
2023/02/04 10:59:26;;;;;;;12.90;6.50;;;;;;;1.25;100.00;100600.48;109217;1253;68715;-83
2023/02/04 11:02:32;;;;;;;8.70;4.30;;;;;;;1.39;100.00;100601.41;109297;1253;72101;-83
2023/02/04 11:05:22;;;;;;;7.80;4.60;;;;;;;1.56;100.00;100602.44;109106;1253;58257;-83
2023/02/04 11:08:23;;;;;;;8.40;4.80;;;;;;;1.63;100.00;100600.15;109248;1253;59513;-84
2023/02/04 11:11:17;;;;;;;8.60;4.50;;;;;;;1.63;100.00;100603.47;109055;1253;73981;-83
2023/02/04 11:14:27;;;;;;;8.30;4.90;;;;;;;1.60;100.00;100608.67;109187;1253;67682;-83
2023/02/04 11:17:19;;;;;;;11.30;4.80;;;;;;;1.55;100.00;100610.17;109207;1253;73781;-84
2023/02/04 11:20:29;;;;;;;12.20;5.10;;;;;;;1.46;100.00;100609.20;109265;1253;59843;-84
2023/02/04 11:23:24;;;;;;;10.80;6.20;;;;;;;1.41;100.00;100612.05;109316;1253;61611;-84
2023/02/04 11:26:21;;;;;;;7.90;5.50;;;;;;;1.46;100.00;100616.33;109244;1253;73184;-84
2023/02/04 11:29:33;;;;;;;8.70;5.70;;;;;;;1.44;100.00;100619.78;109318;1253;68758;-84
2023/02/04 11:32:27;;;;;;;13.40;8.00;;;;;;;1.45;100.00;100622.63;109222;1253;73169;-83
2023/02/04 11:35:23;;;;;;;8.30;5.20;;;;;;;1.46;100.00;100620.52;109319;1253;59981;-84
2023/02/04 11:38:23;;;;;;;11.00;6.20;;;;;;;1.45;100.00;100621.73;109269;1253;59640;-86
2023/02/04 11:41:18;;;;;;;20.60;8.70;;;;;;;1.48;100.00;100620.95;109197;1254;74375;-86
2023/02/04 11:44:07;;;;;;;12.60;6.80;;;;;;;1.49;100.00;100624.02;109255;1253;68924;-85
2023/02/04 11:47:06;;;;;;;9.70;5.30;;;;;;;1.51;100.00;100627.69;109176;1255;73701;-84
2023/02/04 11:49:58;;;;;;;10.00;5.00;;;;;;;1.55;100.00;100627.92;109253;1253;60541;-85
2023/02/04 11:52:46;;;;;;;10.70;5.60;;;;;;;1.46;100.00;100629.67;109209;1253;62146;-85
2023/02/04 11:55:43;;;;;;;9.20;4.60;;;;;;;1.44;100.00;100627.81;109281;1253;73182;-85
2023/02/04 11:58:37;;;;;;;10.00;4.80;;;;;;;1.39;100.00;100628.33;109236;1253;69078;-86
2023/02/04 12:01:30;;;;;;;19.20;8.20;;;;;;;1.33;100.00;100635.23;109203;1253;73441;-85
2023/02/04 12:04:23;;;;;;;11.80;6.30;;;;;;;1.28;100.00;100638.98;109269;1253;58341;-85
2023/02/04 12:07:12;;;;;;;12.00;6.10;;;;;;;1.23;100.00;100644.31;109202;1253;60835;-85
2023/02/04 12:10:23;;;;;;;14.90;6.60;;;;;;;1.19;100.00;100647.97;109101;1253;74117;-86
2023/02/04 12:13:22;;;;;;;9.80;5.40;;;;;;;1.17;100.00;100652.65;109279;1253;66677;-85
2023/02/04 12:16:11;;;;;;;9.10;5.70;;;;;;;1.15;100.00;100652.48;109185;1253;73661;-86
2023/02/04 12:19:00;;;;;;;10.20;4.90;;;;;;;1.12;100.00;100652.21;109214;1253;86832;-84
2023/02/04 12:21:49;;;;;;;8.10;4.20;;;;;;;1.08;100.00;100653.09;109301;1253;58575;-85
2023/02/04 12:24:37;;;;;;;10.20;5.00;;;;;;;1.06;100.00;100658.27;109316;1253;74402;-86
2023/02/04 12:27:28;;;;;;;8.90;5.00;;;;;;;1.13;100.00;100665.09;109268;1253;68666;-86
2023/02/04 12:30:19;;;;;;;9.00;4.60;;;;;;;1.13;100.00;100670.27;109266;1253;73077;-87
2023/02/04 12:33:08;;;;;;;7.10;4.00;;;;;;;1.12;100.00;100673.29;109222;1253;58687;-86
2023/02/04 12:35:56;;;;;;;6.30;3.30;;;;;;;1.16;100.00;100675.48;109319;1253;60318;-86
2023/02/04 12:38:45;;;;;;;7.30;3.60;;;;;;;1.24;100.00;100675.58;109297;1253;74279;-87
2023/02/04 12:41:34;;;;;;;10.20;4.10;;;;;;;1.28;100.00;100679.04;109279;1253;68914;-86
2023/02/04 12:44:23;;;;;;;8.60;5.00;;;;;;;1.24;100.00;100684.77;109275;1253;70864;-86
2023/02/04 12:47:12;;;;;;;12.70;5.20;;;;;;;1.26;100.00;100685.89;109247;1254;59556;-87
2023/02/04 12:50:01;;;;;;;11.70;5.30;;;;;;;1.32;100.00;100691.20;109270;1253;60860;-87
2023/02/04 12:52:55;;;;;;;12.50;6.30;;;;;;;1.29;100.00;100692.88;109256;1254;73883;-87
2023/02/04 12:55:44;;;;;;;11.30;5.20;;;;;;;1.30;100.00;100696.64;109318;1253;67787;-87
2023/02/04 12:58:33;;;;;;;7.10;3.80;;;;;;;1.23;100.00;100701.55;109311;1253;72860;-87